Flight Track Log - Related Links

Times and Time Zones

All times are in EDT time to prevent confusion due to time zone crossing. See the CSN6817 flight status page for this flight to view local times or setup timezone preferences in your user account.

Time Position Orientation Groundspeed Altitude Reporting Facility
EDT Latitude Longitude Course Direction KTS MPH feet Rate Location/Type
Sun 08:25:00 PM 43.4395 86.8828 223° Southwest  Level Estimated
Sun 08:26:00 PM 43.3613 86.7851 222° Southwest  Level Estimated
Sun 08:27:00 PM 43.2830 86.6877 222° Southwest  Level Estimated
Sun 08:28:00 PM 43.2046 86.5905 222° Southwest  Level Estimated
Sun 08:29:00 PM 43.1261 86.4936 222° Southwest  Level Estimated
Sun 08:30:00 PM 43.0475 86.3969 222° Southwest  Level Estimated
Sun 08:31:00 PM 42.9689 86.3005 222° Southwest  Level Estimated
Sun 08:32:00 PM 42.8902 86.2043 222° Southwest  Level Estimated
Sun 08:33:00 PM 42.8114 86.1084 222° Southwest  Level Estimated
Sun 08:34:00 PM 42.7325 86.0127 222° Southwest  Level Estimated
Sun 08:35:00 PM 42.6535 85.9172 222° Southwest  Level Estimated
Sun 08:36:00 PM 42.5745 85.8220 222° Southwest  Level Estimated
Sun 08:37:00 PM 42.4954 85.7270 222° Southwest  Level Estimated
Sun 08:38:00 PM 42.4162 85.6323 221° Southwest  Level Estimated
Sun 08:39:00 PM 42.3369 85.5378 221° Southwest  Level Estimated
Sun 08:40:00 PM 42.2575 85.4436 221° Southwest  Level Estimated
Sun 08:41:00 PM 42.1781 85.3495 221° Southwest  Level Estimated
Sun 08:42:00 PM 42.0986 85.2558 221° Southwest  Level Estimated
Sun 08:43:00 PM 42.0190 85.1622 221° Southwest  Level Estimated
Sun 08:44:00 PM 41.9394 85.0689 221° Southwest  Level Estimated
Sun 08:45:00 PM 41.8596 84.9758 221° Southwest  Level Estimated
Sun 08:46:00 PM 41.7798 84.8830 221° Southwest  Level Estimated
Sun 08:47:00 PM 41.7000 84.7904 221° Southwest  Level Estimated
Sun 08:48:00 PM 41.6200 84.6980 221° Southwest  Level Estimated
Sun 08:49:00 PM 41.5400 84.6058 221° Southwest  Level Estimated
Sun 08:50:00 PM 41.4599 84.5139 221° Southwest  Level Estimated
Sun 08:51:00 PM 41.3797 84.4222 221° Southwest  Level Estimated
Sun 08:52:00 PM 41.2994 84.3307 221° Southwest  Level Estimated
Sun 08:53:00 PM 41.2191 84.2395 221° Southwest  Level Estimated
Sun 08:54:00 PM 41.1387 84.1484 220° Southwest  Level Estimated
Sun 08:55:00 PM 41.0583 84.0576 220° Southwest  Level Estimated
Sun 08:56:00 PM 40.9777 83.9670 220° Southwest  Level Estimated
Sun 08:57:00 PM 40.8971 83.8767 220° Southwest  Level Estimated
Sun 08:58:00 PM 40.8164 83.7865 220° Southwest  Level Estimated
Sun 08:59:00 PM 40.7357 83.6966 220° Southwest  Level Estimated
Sun 09:00:00 PM 40.6549 83.6069 220° Southwest  Level Estimated
Sun 09:01:00 PM 40.5740 83.5174 220° Southwest  Level Estimated
Sun 09:02:00 PM 40.4930 83.4282 220° Southwest  Level Estimated
Sun 09:03:00 PM 40.4120 83.3391 220° Southwest  Level Estimated
Sun 09:04:00 PM 40.3309 83.2503 220° Southwest  Level Estimated
Sun 09:05:00 PM 40.2498 83.1616 220° Southwest  Level Estimated
Sun 09:06:00 PM 40.1685 83.0732 220° Southwest  Level Estimated
Sun 09:07:00 PM 40.0872 82.9850 220° Southwest  Level Estimated
Sun 09:08:00 PM 40.0059 82.8970 220° Southwest  Level Estimated
Sun 09:09:00 PM 39.9245 82.8092 220° Southwest  Level Estimated
Sun 09:10:00 PM 39.8430 82.7217 220° Southwest  Level Estimated
Sun 09:11:00 PM 39.7614 82.6343 219° Southwest  Level Estimated
Sun 09:12:00 PM 39.6798 82.5471 219° Southwest  Level Estimated
Sun 09:13:00 PM 39.5981 82.4602 219° Southwest  Level Estimated
Sun 09:14:00 PM 39.5163 82.3734 219° Southwest  Level Estimated
Sun 09:15:00 PM 39.4345 82.2869 219° Southwest  Level Estimated
Sun 09:16:00 PM 39.3526 82.2005 219° Southwest  Level Estimated
Sun 09:17:00 PM 39.2707 82.1144 219° Southwest  Level Estimated
Sun 09:18:00 PM 39.1887 82.0285 219° Southwest  Level Estimated
Sun 09:19:00 PM 39.1066 81.9427 219° Southwest  Level Estimated
Sun 09:20:00 PM 39.0245 81.8572 219° Southwest  Level Estimated
Sun 09:21:00 PM 38.9423 81.7719 219° Southwest  Level Estimated
Sun 09:22:00 PM 38.8600 81.6867 219° Southwest  Level Estimated
Sun 09:23:00 PM 38.7777 81.6018 219° Southwest  Level Estimated
Sun 09:24:00 PM 38.6953 81.5170 219° Southwest  Level Estimated
Sun 09:25:00 PM 38.6129 81.4325 219° Southwest  Level Estimated
Sun 09:26:00 PM 38.5304 81.3481 219° Southwest  Level Estimated
Sun 09:27:00 PM 38.4478 81.2639 219° Southwest  Level Estimated
Sun 09:28:00 PM 38.3652 81.1799 219° Southwest  Level Estimated
Sun 09:29:00 PM 38.2825 81.0962 219° Southwest  Level Estimated
Sun 09:30:00 PM 38.1998 81.0126 218° Southwest  Level Estimated
Sun 09:31:00 PM 38.1170 80.9292 218° Southwest  Level Estimated
Sun 09:32:00 PM 38.0341 80.8460 218° Southwest  Level Estimated
Sun 09:33:00 PM 37.9512 80.7629 218° Southwest  Level Estimated
Sun 09:34:00 PM 37.8682 80.6801 218° Southwest  Level Estimated
Sun 09:35:00 PM 37.7852 80.5974 218° Southwest  Level Estimated
Sun 09:36:00 PM 37.7021 80.5150 218° Southwest  Level Estimated
Sun 09:37:00 PM 37.6189 80.4327 218° Southwest  Level Estimated
Sun 09:38:00 PM 37.5357 80.3506 218° Southwest  Level Estimated
Sun 09:39:00 PM 37.4525 80.2687 218° Southwest  Level Estimated
Sun 09:40:00 PM 37.3691 80.1870 218° Southwest  Level Estimated
Sun 09:41:00 PM 37.2858 80.1054 218° Southwest  Level Estimated
Sun 09:42:00 PM 37.2024 80.0240 218° Southwest  Level Estimated
Sun 09:43:00 PM 37.1189 79.9428 218° Southwest  Level Estimated
Sun 09:44:00 PM 37.0385 79.8649 218° Southwest  Level Estimated
Sun 09:45:00 PM 37.0385 79.8649 North  Level Estimated
Sun 09:46:00 PM 37.0385 79.8649 North  Level Estimated
Sun 09:47:00 PM 37.0385 79.8649 North  Level Estimated
Sun 09:48:00 PM 37.0385 79.8649 North  Level Estimated
Sun 09:49:00 PM 37.0385 79.8649 North  Level Estimated
Sun 09:50:00 PM 37.0385 79.8649 North  Level Estimated
Sun 09:51:00 PM 37.0385 79.8649 North  Level Estimated
Sun 09:52:00 PM 37.0385 79.8649 North  Level Estimated
Sun 09:53:00 PM 37.0385 79.8649 North  Level Estimated
Sun 09:54:00 PM 37.0385 79.8649 North  Level Estimated
Sun 09:55:00 PM 37.0385 79.8649 North  Level Estimated
Sun 09:56:00 PM 37.0385 79.8649 North  Level Estimated
Sun 09:57:00 PM 37.0385 79.8649 North  Level Estimated
Sun 09:58:00 PM 37.0385 79.8649 North  Level Estimated
Sun 09:59:00 PM 37.0385 79.8649 North  Level Estimated
Sun 10:00:00 PM 37.0385 79.8649 North  Level Estimated

Login

Don't have an account? Register now (free) for customized features, flight alerts, and more!